Time;durP1;ratioP1;P1;durP2;ratioP2;P2;SDS_P1;SDS_P2;PMS_P1;PMS_P2;Temp;Humidity;BMP_temperature;BMP_pressure;BME280_temperature;BME280_humidity;BME280_pressure;Samples;Min_cycle;Max_cycle;Signal;HPM_P1;HPM_P2
2022/01/19 00:01:40;;;;;;;29.33;6.70;;;21.00;89.60;;;;;;5073800;28;20292;-75
2022/01/19 00:04:07;;;;;;;31.00;7.00;;;21.20;89.50;;;;;;5072493;28;20251;-77
2022/01/19 00:06:35;;;;;;;30.10;6.10;;;21.20;89.60;;;;;;5073102;28;20183;-79
2022/01/19 00:09:02;;;;;;;21.03;5.40;;;21.20;89.70;;;;;;5071979;28;20188;-77
2022/01/19 00:11:29;;;;;;;27.40;7.17;;;21.20;89.10;;;;;;5073884;28;20186;-79
2022/01/19 00:13:57;;;;;;;32.50;7.40;;;21.20;88.80;;;;;;5069636;28;20272;-81
2022/01/19 00:16:25;;;;;;;24.57;6.63;;;21.00;89.20;;;;;;5073697;28;20179;-75
2022/01/19 00:18:52;;;;;;;30.80;6.33;;;21.00;89.20;;;;;;5073007;28;20192;-78
2022/01/19 00:21:19;;;;;;;29.10;6.00;;;21.00;89.20;;;;;;5072106;28;20250;-77
2022/01/19 00:23:47;;;;;;;34.57;6.10;;;20.90;89.60;;;;;;5074308;28;20301;-78
2022/01/19 00:26:14;;;;;;;35.80;7.77;;;21.00;90.10;;;;;;5074459;28;20254;-76
2022/01/19 00:28:41;;;;;;;32.70;7.03;;;21.00;89.90;;;;;;5072295;27;20198;-81
2022/01/19 00:31:09;;;;;;;28.10;6.30;;;21.00;89.90;;;;;;5071241;28;20218;-74
2022/01/19 00:33:38;;;;;;;28.97;6.70;;;21.00;89.90;;;;;;5074386;28;20636;-74
2022/01/19 00:36:05;;;;;;;30.57;7.33;;;21.20;89.80;;;;;;5066470;28;20234;-77
2022/01/19 00:38:33;;;;;;;38.20;6.73;;;21.30;89.80;;;;;;5072322;28;20219;-73
2022/01/19 00:41:01;;;;;;;28.10;6.67;;;21.40;89.90;;;;;;5073337;28;20207;-75
2022/01/19 00:43:28;;;;;;;27.63;6.40;;;21.40;89.40;;;;;;5080068;28;20213;-78
2022/01/19 00:45:56;;;;;;;25.20;5.40;;;21.40;88.30;;;;;;5082852;28;20207;-73
2022/01/19 00:48:23;;;;;;;18.57;4.97;;;21.30;86.70;;;;;;5072192;28;20257;-73
2022/01/19 00:50:51;;;;;;;19.37;5.27;;;21.30;86.90;;;;;;5070185;28;20172;-80
2022/01/19 00:53:18;;;;;;;18.60;5.00;;;21.20;86.40;;;;;;5072470;28;20762;-78
2022/01/19 00:55:46;;;;;;;19.27;4.50;;;21.20;86.40;;;;;;5072542;28;20199;-77
2022/01/19 00:58:13;;;;;;;24.23;4.90;;;21.10;86.00;;;;;;5071104;28;20205;-77
2022/01/19 01:00:41;;;;;;;28.83;5.00;;;21.10;86.00;;;;;;5073642;28;20179;-77
2022/01/19 01:03:08;;;;;;;27.43;4.17;;;21.30;85.40;;;;;;5072130;28;20191;-79
2022/01/19 01:05:37;;;;;;;20.07;4.37;;;21.30;85.20;;;;;;5069934;28;20206;-77
2022/01/19 01:08:06;;;;;;;19.47;3.87;;;21.30;85.40;;;;;;5073517;28;20195;-76
2022/01/19 01:10:41;;;;;;;22.27;4.37;;;21.30;84.70;;;;;;5102181;28;20187;-79
2022/01/19 01:15:49;;;;;;;24.03;4.80;;;21.40;84.10;;;;;;5069610;28;20183;-77
2022/01/19 01:18:20;;;;;;;21.93;4.40;;;21.50;84.60;;;;;;5072145;28;20697;-80
2022/01/19 01:20:53;;;;;;;20.60;5.43;;;21.50;83.00;;;;;;5069623;28;20171;-78
2022/01/19 01:23:27;;;;;;;20.40;4.67;;;21.30;84.30;;;;;;5069616;28;20190;-78
2022/01/19 01:25:55;;;;;;;23.10;4.73;;;21.40;84.50;;;;;;5072354;28;20262;-80
2022/01/19 01:28:22;;;;;;;18.33;4.00;;;21.50;85.10;;;;;;5070539;28;20195;-79
2022/01/19 01:30:50;;;;;;;15.70;3.33;;;21.50;84.50;;;;;;5069648;28;20564;-80
2022/01/19 01:33:18;;;;;;;25.43;4.60;;;21.50;82.60;;;;;;5070930;28;20183;-78
2022/01/19 01:35:47;;;;;;;22.23;4.90;;;21.50;82.40;;;;;;5069144;28;20208;-80
2022/01/19 01:38:34;;;;;;;26.30;5.17;;;21.50;82.60;;;;;;5048350;27;20518;-84
2022/01/19 01:41:05;;;;;;;23.77;4.53;;;21.50;83.00;;;;;;5049096;28;20194;-81
2022/01/19 01:43:33;;;;;;;22.70;4.03;;;21.60;83.10;;;;;;5047993;28;20191;-85
2022/01/19 01:46:05;;;;;;;18.63;3.80;;;21.80;81.80;;;;;;5049221;28;20196;-86
2022/01/19 01:48:41;;;;;;;22.83;4.40;;;21.90;81.70;;;;;;5047774;28;20219;-79
2022/01/19 01:53:58;;;;;;;17.23;4.60;;;22.50;79.20;;;;;;5048958;28;20234;-84
2022/01/19 01:56:26;;;;;;;23.23;4.40;;;22.80;78.80;;;;;;5048450;28;20234;-85
2022/01/19 01:58:53;;;;;;;23.23;4.20;;;22.80;78.00;;;;;;5045390;28;20275;-84
2022/01/19 02:01:21;;;;;;;22.57;3.47;;;23.10;74.40;;;;;;5048724;28;20199;-81
2022/01/19 02:03:48;;;;;;;23.53;3.57;;;23.30;74.30;;;;;;5048360;28;20269;-78
2022/01/19 02:08:54;;;;;;;13.83;3.10;;;23.60;69.40;;;;;;5046635;28;20259;-78
2022/01/19 02:22:03;;;;;;;19.93;3.27;;;24.90;64.50;;;;;;5047421;28;20171;-81
2022/01/19 02:24:44;;;;;;;10.93;2.87;;;24.70;65.70;;;;;;5046734;28;20219;-74
2022/01/19 02:41:27;;;;;;;16.90;3.67;;;23.10;72.60;;;;;;5048069;28;20187;-76
2022/01/19 02:43:56;;;;;;;16.30;3.37;;;23.00;72.80;;;;;;5047304;28;20184;-76
2022/01/19 02:49:19;;;;;;;22.33;4.00;;;23.00;73.60;;;;;;5040669;28;20231;-77
2022/01/19 02:51:49;;;;;;;17.50;3.67;;;23.10;73.30;;;;;;5032686;28;20192;-74
2022/01/19 02:54:23;;;;;;;17.03;3.10;;;23.10;73.80;;;;;;5033409;28;20661;-81
2022/01/19 02:56:53;;;;;;;19.37;3.83;;;23.20;72.00;;;;;;5031838;28;20223;-83
2022/01/19 03:10:06;;;;;;;14.10;3.90;;;22.80;75.00;;;;;;5034559;28;20686;-78
2022/01/19 03:12:33;;;;;;;19.93;3.60;;;22.50;76.00;;;;;;5033281;28;20185;-82
2022/01/19 03:15:01;;;;;;;22.50;4.33;;;22.50;77.20;;;;;;5033155;28;20220;-73
2022/01/19 03:17:28;;;;;;;22.23;4.50;;;22.80;76.50;;;;;;5034553;28;20216;-84
2022/01/19 03:19:55;;;;;;;27.30;5.37;;;23.00;75.90;;;;;;5034192;28;20165;-85
2022/01/19 03:22:29;;;;;;;18.53;3.83;;;23.30;75.70;;;;;;5034743;28;20259;-78
2022/01/19 03:24:57;;;;;;;18.13;3.90;;;23.40;73.20;;;;;;5033231;28;20185;-77
2022/01/19 03:27:24;;;;;;;23.20;3.70;;;23.20;69.90;;;;;;5034358;28;20189;-79
2022/01/19 03:29:51;;;;;;;13.67;3.40;;;23.20;70.10;;;;;;5029575;28;20184;-81
2022/01/19 03:32:19;;;;;;;17.33;3.57;;;23.30;70.30;;;;;;5034747;28;20196;-83
2022/01/19 03:34:46;;;;;;;20.17;4.53;;;23.30;69.80;;;;;;5034121;28;20183;-78
2022/01/19 03:37:14;;;;;;;19.20;3.67;;;23.30;70.90;;;;;;5033604;28;20235;-78
2022/01/19 03:39:41;;;;;;;19.20;3.73;;;23.40;69.50;;;;;;5033825;28;20181;-83
2022/01/19 03:42:10;;;;;;;24.67;4.50;;;23.60;69.90;;;;;;5031629;28;20218;-84
2022/01/19 03:44:37;;;;;;;24.57;5.90;;;24.00;68.10;;;;;;5030879;28;20631;-75
2022/01/19 03:47:06;;;;;;;19.23;4.10;;;24.40;66.20;;;;;;5037162;28;20289;-80
2022/01/19 03:49:34;;;;;;;14.80;3.07;;;24.80;64.30;;;;;;5037562;28;20185;-75
2022/01/19 03:52:05;;;;;;;14.20;3.57;;;24.80;63.80;;;;;;5035733;28;20180;-82
2022/01/19 03:54:38;;;;;;;18.17;3.40;;;25.00;63.90;;;;;;5032924;28;20267;-84
2022/01/19 03:57:06;;;;;;;15.80;3.30;;;24.90;63.90;;;;;;5036232;28;20251;-74
2022/01/19 03:59:34;;;;;;;15.73;3.57;;;24.70;65.40;;;;;;5033331;28;20189;-75
2022/01/19 04:02:02;;;;;;;19.40;3.93;;;23.80;69.40;;;;;;5033521;28;20322;-83
2022/01/19 04:09:44;;;;;;;20.37;3.80;;;24.20;67.10;;;;;;5034286;28;20188;-85
2022/01/19 04:12:18;;;;;;;15.13;3.87;;;24.30;68.40;;;;;;5037931;28;20200;-81
2022/01/19 04:14:46;;;;;;;13.73;3.50;;;24.30;68.70;;;;;;5037783;28;20651;-85
2022/01/19 04:17:16;;;;;;;13.73;2.70;;;23.70;68.40;;;;;;5034805;28;20223;-81
2022/01/19 04:19:46;;;;;;;16.53;3.40;;;23.30;69.70;;;;;;5034198;28;20192;-83
2022/01/19 04:22:18;;;;;;;19.37;3.23;;;23.30;72.00;;;;;;5031655;28;20197;-85
2022/01/19 04:24:47;;;;;;;13.57;2.87;;;23.10;71.60;;;;;;5031279;28;20177;-82
2022/01/19 04:27:36;;;;;;;16.17;2.90;;;23.00;69.10;;;;;;5032502;28;20180;-82
2022/01/19 04:30:11;;;;;;;16.90;3.10;;;23.00;69.80;;;;;;5031297;28;20189;-77
2022/01/19 04:33:13;;;;;;;15.40;2.90;;;22.90;72.60;;;;;;5030800;28;20196;-82
2022/01/19 04:35:48;;;;;;;19.23;3.40;;;22.70;73.10;;;;;;5035207;28;20669;-77
2022/01/19 04:47:01;;;;;;;20.73;3.57;;;22.00;75.90;;;;;;5032940;28;20183;-82
2022/01/19 05:05:39;;;;;;;13.73;3.03;;;23.40;65.50;;;;;;5031063;28;20208;-78
2022/01/19 05:13:54;;;;;;;13.03;4.00;;;22.80;70.30;;;;;;5033465;28;20278;-78
2022/01/19 05:16:23;;;;;;;15.77;3.50;;;22.50;72.90;;;;;;5032224;28;20199;-79
2022/01/19 05:18:51;;;;;;;20.73;3.70;;;22.30;73.80;;;;;;5031807;28;20192;-78
2022/01/19 05:21:22;;;;;;;24.70;4.10;;;21.60;79.60;;;;;;5029255;28;20272;-84
2022/01/19 05:23:52;;;;;;;26.73;4.80;;;21.20;82.10;;;;;;5033595;28;20228;-84
2022/01/19 05:26:22;;;;;;;23.93;4.47;;;21.00;83.60;;;;;;5034258;28;20173;-84
2022/01/19 05:28:49;;;;;;;22.90;4.33;;;20.90;84.60;;;;;;5044636;28;20176;-83
2022/01/19 05:31:19;;;;;;;23.07;4.90;;;21.00;85.40;;;;;;5042418;28;20227;-84
2022/01/19 05:33:47;;;;;;;24.13;4.30;;;21.00;85.80;;;;;;5032793;28;20180;-84
2022/01/19 05:36:14;;;;;;;24.43;4.33;;;21.00;81.60;;;;;;5032354;28;20239;-83
2022/01/19 05:38:42;;;;;;;31.83;4.90;;;21.00;82.30;;;;;;5031873;28;20237;-82
2022/01/19 05:41:09;;;;;;;27.03;5.70;;;21.10;81.50;;;;;;5032001;28;20168;-78
2022/01/19 05:43:36;;;;;;;20.67;3.63;;;21.20;81.10;;;;;;5032538;28;20233;-87
2022/01/19 05:46:04;;;;;;;21.97;3.90;;;21.30;80.20;;;;;;5031037;28;20189;-76
2022/01/19 05:48:34;;;;;;;18.33;4.20;;;21.30;78.90;;;;;;5027563;28;20254;-85
2022/01/19 05:51:02;;;;;;;16.03;3.43;;;21.30;78.50;;;;;;5029415;28;20252;-75
2022/01/19 05:53:31;;;;;;;23.00;4.13;;;21.40;77.30;;;;;;5033841;28;20542;-78
2022/01/19 05:55:59;;;;;;;14.00;2.87;;;21.50;76.20;;;;;;5029499;28;20260;-76
2022/01/19 05:58:26;;;;;;;13.60;3.63;;;21.60;75.50;;;;;;5031567;28;20219;-85
2022/01/19 06:00:53;;;;;;;13.83;3.33;;;21.70;76.20;;;;;;5032095;28;20702;-80
2022/01/19 06:03:21;;;;;;;17.07;3.20;;;21.70;74.70;;;;;;5030490;28;20203;-81
2022/01/19 06:05:48;;;;;;;11.90;3.30;;;21.90;74.10;;;;;;5031600;28;20263;-83
2022/01/19 06:10:57;;;;;;;16.17;3.53;;;22.20;73.90;;;;;;5031339;28;20259;-79
2022/01/19 06:13:26;;;;;;;17.53;3.33;;;22.20;73.60;;;;;;5031949;28;20193;-78
2022/01/19 06:15:53;;;;;;;15.07;3.27;;;22.20;72.70;;;;;;5029556;28;20184;-76
2022/01/19 06:18:21;;;;;;;21.50;3.47;;;22.10;71.60;;;;;;5030143;28;20227;-85
2022/01/19 06:20:49;;;;;;;16.43;3.97;;;22.10;71.20;;;;;;5031124;28;20176;-85
2022/01/19 06:23:16;;;;;;;16.83;2.77;;;22.10;71.20;;;;;;5031220;28;20646;-80
2022/01/19 06:25:44;;;;;;;19.53;2.87;;;22.20;71.00;;;;;;5035020;28;20540;-84
2022/01/19 06:28:12;;;;;;;16.57;2.83;;;22.10;70.20;;;;;;5033145;28;20189;-82
2022/01/19 06:30:39;;;;;;;18.87;3.77;;;22.00;71.30;;;;;;5027982;28;20191;-82
2022/01/19 06:33:07;;;;;;;14.10;2.90;;;21.80;72.70;;;;;;5033866;28;20188;-81
2022/01/19 06:35:35;;;;;;;17.10;2.80;;;21.60;74.30;;;;;;5035120;28;20195;-85
2022/01/19 06:38:02;;;;;;;13.47;3.13;;;21.50;73.60;;;;;;5033830;28;20729;-82
2022/01/19 06:40:33;;;;;;;15.67;2.93;;;21.60;73.30;;;;;;5033391;28;20196;-85
2022/01/19 06:43:00;;;;;;;13.80;2.53;;;21.80;73.20;;;;;;5032948;28;20518;-85
2022/01/19 06:45:31;;;;;;;12.87;3.10;;;22.00;70.80;;;;;;5033293;28;20185;-79
2022/01/19 06:47:58;;;;;;;13.50;3.30;;;22.10;70.90;;;;;;5034199;28;20188;-78
2022/01/19 06:50:26;;;;;;;16.80;3.23;;;21.90;73.60;;;;;;5033090;28;20196;-71
2022/01/19 06:53:00;;;;;;;14.77;3.43;;;21.10;80.00;;;;;;5033514;28;20525;-80
2022/01/19 06:55:27;;;;;;;14.40;3.10;;;20.50;82.90;;;;;;5034390;28;20196;-79
2022/01/19 06:57:54;;;;;;;17.50;3.50;;;20.00;84.40;;;;;;5035413;28;20212;-82
2022/01/19 07:00:22;;;;;;;18.93;3.20;;;19.80;85.40;;;;;;5033474;28;20258;-80
2022/01/19 07:02:49;;;;;;;24.17;3.67;;;19.70;85.80;;;;;;5034008;28;20196;-81
2022/01/19 07:05:16;;;;;;;22.90;3.50;;;19.70;84.50;;;;;;5042893;28;20278;-78
2022/01/19 07:07:44;;;;;;;15.37;3.03;;;19.70;83.80;;;;;;5041580;28;20259;-80
2022/01/19 07:10:23;;;;;;;20.17;3.57;;;19.80;83.60;;;;;;5031884;28;20185;-81
2022/01/19 07:12:51;;;;;;;16.83;3.30;;;19.80;82.60;;;;;;5029284;28;20200;-81
2022/01/19 07:15:19;;;;;;;22.53;3.83;;;19.90;82.70;;;;;;5032565;28;20211;-78
2022/01/19 07:17:46;;;;;;;17.27;3.83;;;20.10;83.10;;;;;;5034253;28;20323;-81
2022/01/19 07:20:13;;;;;;;19.70;3.93;;;20.30;81.90;;;;;;5034114;28;20220;-80
2022/01/19 07:22:41;;;;;;;21.47;3.53;;;20.40;82.20;;;;;;5031463;28;20192;-85
2022/01/19 07:25:09;;;;;;;17.03;3.77;;;20.50;81.60;;;;;;5034018;28;20173;-82
2022/01/19 07:27:37;;;;;;;16.93;3.77;;;20.60;81.40;;;;;;5034456;28;20177;-83
2022/01/19 07:30:05;;;;;;;17.60;3.50;;;20.70;81.40;;;;;;5026890;28;20751;-82
2022/01/19 07:32:34;;;;;;;23.90;4.73;;;20.70;80.90;;;;;;5032908;28;20177;-84
2022/01/19 07:35:06;;;;;;;17.10;2.70;;;20.70;81.10;;;;;;5034277;28;20193;-81
2022/01/19 07:37:34;;;;;;;12.43;2.67;;;20.60;78.20;;;;;;5033090;28;20225;-79
2022/01/19 07:40:05;;;;;;;16.03;3.20;;;20.70;77.60;;;;;;5033192;28;20543;-82
2022/01/19 07:42:32;;;;;;;18.23;2.87;;;20.70;77.50;;;;;;5033538;28;20222;-80
2022/01/19 07:45:00;;;;;;;16.50;2.97;;;20.80;77.70;;;;;;5034121;28;20176;-75
2022/01/19 07:47:28;;;;;;;16.43;3.63;;;20.80;77.00;;;;;;5048795;28;20262;-86
2022/01/19 07:49:59;;;;;;;14.33;3.20;;;20.90;77.40;;;;;;5033153;28;20651;-83
2022/01/19 07:52:49;;;;;;;16.97;3.50;;;21.00;77.10;;;;;;5032273;28;20230;-86
2022/01/19 07:55:16;;;;;;;18.23;3.17;;;21.10;76.50;;;;;;5032112;28;20720;-78
2022/01/19 07:57:48;;;;;;;15.40;3.00;;;21.10;75.90;;;;;;5029136;28;20349;-80
2022/01/19 08:00:16;;;;;;;15.70;3.80;;;21.10;76.20;;;;;;5031905;28;20181;-83
2022/01/19 08:02:47;;;;;;;15.83;3.30;;;20.90;78.30;;;;;;5029632;28;20204;-85
2022/01/19 08:05:14;;;;;;;12.73;3.10;;;20.70;77.90;;;;;;5031975;28;20386;-83
2022/01/19 08:07:44;;;;;;;19.13;2.80;;;20.70;76.30;;;;;;5032539;28;20180;-81
2022/01/19 08:10:14;;;;;;;12.37;2.63;;;20.80;75.90;;;;;;5032183;28;20184;-74
2022/01/19 08:13:01;;;;;;;15.70;3.17;;;20.80;75.10;;;;;;5032316;28;20176;-81
2022/01/19 08:15:29;;;;;;;15.03;3.03;;;20.80;73.30;;;;;;5028936;28;20185;-85
2022/01/19 08:17:56;;;;;;;15.37;3.00;;;20.90;74.50;;;;;;5030568;28;20223;-78
2022/01/19 08:20:24;;;;;;;21.77;3.60;;;20.90;74.10;;;;;;5032097;28;20176;-76
2022/01/19 08:22:51;;;;;;;22.23;4.07;;;21.00;74.80;;;;;;5032508;28;20240;-76
2022/01/19 08:25:22;;;;;;;16.20;3.30;;;21.00;74.00;;;;;;5032445;28;20303;-84
2022/01/19 08:27:52;;;;;;;16.87;3.37;;;21.00;73.10;;;;;;5032639;28;20277;-81
2022/01/19 08:30:28;;;;;;;21.47;3.83;;;21.00;72.60;;;;;;5025965;28;20245;-85
2022/01/19 08:32:56;;;;;;;15.17;3.30;;;21.00;74.10;;;;;;5032733;28;20242;-85
2022/01/19 08:35:27;;;;;;;18.43;3.20;;;21.00;73.10;;;;;;5032426;28;20552;-86
2022/01/19 08:37:54;;;;;;;14.50;2.67;;;21.00;73.30;;;;;;5033793;28;20236;-78
2022/01/19 08:40:27;;;;;;;21.43;3.73;;;21.00;73.00;;;;;;5037036;28;20184;-80
2022/01/19 08:43:04;;;;;;;11.87;2.40;;;20.90;75.30;;;;;;5032593;28;20190;-85
2022/01/19 08:45:35;;;;;;;22.57;2.70;;;20.70;76.80;;;;;;5032989;28;20192;-78
2022/01/19 08:48:13;;;;;;;16.20;2.93;;;20.60;77.40;;;;;;5030353;28;20184;-80
2022/01/19 08:50:41;;;;;;;20.53;3.90;;;20.70;78.20;;;;;;5064938;28;20200;-80
2022/01/19 08:53:11;;;;;;;20.00;3.40;;;20.70;77.90;;;;;;5031134;28;20180;-75
2022/01/19 08:55:42;;;;;;;20.30;3.50;;;20.70;78.00;;;;;;5028742;28;20173;-80
2022/01/19 08:58:10;;;;;;;17.00;3.83;;;20.70;76.40;;;;;;5031864;28;20687;-79
2022/01/19 09:00:38;;;;;;;11.53;3.00;;;20.80;76.60;;;;;;5031451;28;20177;-81
2022/01/19 09:03:06;;;;;;;16.77;3.10;;;20.70;76.00;;;;;;5028914;28;20187;-82
2022/01/19 09:05:33;;;;;;;13.77;2.90;;;20.70;76.00;;;;;;5028619;28;20272;-82
2022/01/19 09:08:01;;;;;;;15.23;3.73;;;20.70;75.40;;;;;;5028363;28;20192;-74
2022/01/19 09:10:29;;;;;;;14.17;3.00;;;20.80;74.30;;;;;;5030179;28;20207;-77
2022/01/19 09:12:57;;;;;;;19.40;3.47;;;20.80;74.30;;;;;;5032319;28;20188;-81
2022/01/19 09:15:24;;;;;;;13.20;2.97;;;20.80;74.30;;;;;;5032075;28;20177;-80
2022/01/19 09:17:52;;;;;;;19.87;3.20;;;20.80;74.50;;;;;;5031152;28;20287;-76
2022/01/19 09:20:20;;;;;;;19.73;3.07;;;20.80;74.60;;;;;;5031741;28;20188;-80
2022/01/19 09:22:49;;;;;;;10.60;2.83;;;20.80;75.10;;;;;;5031765;28;20504;-83
2022/01/19 09:25:16;;;;;;;17.47;3.33;;;20.80;75.70;;;;;;5031837;28;20184;-82
2022/01/19 09:27:44;;;;;;;14.87;3.13;;;20.80;75.30;;;;;;5031568;28;20177;-84
2022/01/19 09:30:23;;;;;;;19.33;3.53;;;20.80;75.10;;;;;;5028293;28;20180;-79
2022/01/19 09:33:05;;;;;;;12.33;2.83;;;20.80;74.90;;;;;;5031487;28;20195;-85
2022/01/19 09:35:51;;;;;;;22.50;3.13;;;20.80;74.50;;;;;;5030203;28;20180;-83
2022/01/19 09:38:21;;;;;;;14.27;3.00;;;20.90;74.20;;;;;;5030385;28;20231;-75
2022/01/19 09:40:48;;;;;;;10.80;2.77;;;20.90;73.50;;;;;;5031094;28;20181;-82
2022/01/19 09:43:22;;;;;;;19.13;4.37;;;20.90;72.10;;;;;;5030252;28;20188;-85
2022/01/19 09:45:55;;;;;;;14.70;2.70;;;20.90;72.00;;;;;;5033552;28;20285;-87
2022/01/19 09:48:23;;;;;;;11.97;2.70;;;21.00;71.20;;;;;;5031285;28;20216;-81
2022/01/19 09:50:51;;;;;;;14.90;2.73;;;21.00;70.80;;;;;;5031939;28;20173;-81
2022/01/19 09:53:19;;;;;;;14.77;2.90;;;21.00;72.00;;;;;;5030835;28;20184;-76
2022/01/19 09:55:48;;;;;;;15.23;2.87;;;20.80;74.30;;;;;;5030809;28;20188;-77
2022/01/19 09:58:17;;;;;;;15.67;2.63;;;20.70;75.50;;;;;;5032092;28;20208;-75
2022/01/19 10:00:45;;;;;;;17.10;3.13;;;20.60;73.90;;;;;;5035602;28;20198;-78
2022/01/19 10:03:24;;;;;;;16.90;3.37;;;20.70;73.00;;;;;;5035839;28;20573;-77
2022/01/19 10:06:05;;;;;;;16.67;2.80;;;20.70;73.30;;;;;;5033785;28;20238;-83
2022/01/19 10:08:41;;;;;;;18.77;2.77;;;20.70;72.80;;;;;;5029115;28;20172;-78
2022/01/19 10:11:15;;;;;;;17.03;2.93;;;20.70;70.90;;;;;;5034098;28;20538;-74
2022/01/19 10:19:42;;;;;;;17.90;3.10;;;20.80;70.30;;;;;;5039558;28;20192;-79
2022/01/19 10:22:26;;;;;;;16.40;2.87;;;20.80;70.00;;;;;;5035272;28;20179;-76
2022/01/19 10:25:02;;;;;;;14.20;2.33;;;20.80;69.90;;;;;;5033334;28;20512;-75
2022/01/19 10:27:39;;;;;;;11.37;2.50;;;20.80;69.90;;;;;;5032823;28;20173;-77
2022/01/19 10:30:07;;;;;;;15.63;2.70;;;20.80;70.00;;;;;;5032219;28;20184;-77
2022/01/19 10:32:42;;;;;;;16.60;2.50;;;20.80;69.70;;;;;;5034157;28;20176;-75
2022/01/19 10:35:27;;;;;;;12.37;2.70;;;20.80;69.80;;;;;;5034349;28;20230;-75
2022/01/19 10:38:24;;;;;;;23.27;3.00;;;20.80;70.10;;;;;;5033459;28;20310;-76
2022/01/19 10:41:03;;;;;;;10.40;3.17;;;20.70;70.30;;;;;;5032008;28;20184;-75
2022/01/19 10:43:48;;;;;;;14.23;2.60;;;20.60;69.60;;;;;;5026965;28;20591;-79
2022/01/19 10:46:31;;;;;;;16.03;3.07;;;20.70;68.00;;;;;;5034573;28;20173;-78
2022/01/19 10:49:02;;;;;;;14.30;2.30;;;20.60;67.60;;;;;;5034871;28;20177;-84
2022/01/19 10:51:45;;;;;;;16.57;2.40;;;20.80;66.30;;;;;;5035401;28;20184;-83
2022/01/19 10:54:17;;;;;;;15.93;2.87;;;20.80;66.60;;;;;;5034091;28;20176;-81
2022/01/19 10:56:48;;;;;;;11.70;1.77;;;20.70;66.80;;;;;;5034033;28;20208;-81
2022/01/19 10:59:18;;;;;;;16.00;3.07;;;20.80;67.10;;;;;;5032921;28;20173;-82
2022/01/19 11:01:55;;;;;;;13.77;2.90;;;20.70;66.20;;;;;;5032704;28;20215;-74
2022/01/19 11:04:26;;;;;;;16.77;2.60;;;20.80;66.60;;;;;;5031459;28;20276;-76
2022/01/19 11:07:19;;;;;;;14.50;2.53;;;20.80;66.30;;;;;;5033883;28;20195;-81
2022/01/19 11:09:58;;;;;;;17.43;2.47;;;20.80;66.70;;;;;;5030965;28;20181;-74
2022/01/19 11:12:34;;;;;;;20.30;2.97;;;20.80;67.90;;;;;;5033329;28;20250;-80
2022/01/19 11:15:01;;;;;;;20.10;3.10;;;21.00;69.30;;;;;;5031124;28;20172;-78
2022/01/19 11:17:29;;;;;;;20.93;3.97;;;21.00;70.10;;;;;;5032258;28;20544;-78
2022/01/19 11:19:57;;;;;;;19.53;3.07;;;21.00;70.90;;;;;;5030179;28;20196;-76
2022/01/19 11:22:36;;;;;;;13.33;2.80;;;21.00;71.30;;;;;;5034124;28;20227;-74
2022/01/19 11:25:28;;;;;;;17.73;3.30;;;21.00;71.90;;;;;;5030219;28;20203;-80
2022/01/19 11:27:56;;;;;;;14.27;3.20;;;21.00;72.60;;;;;;5040662;28;20263;-79
2022/01/19 11:30:35;;;;;;;13.93;3.07;;;20.90;73.10;;;;;;5028415;28;20213;-75
2022/01/19 11:33:25;;;;;;;18.87;3.27;;;21.00;72.90;;;;;;5035302;28;20184;-76
2022/01/19 11:36:17;;;;;;;16.87;3.13;;;20.90;72.30;;;;;;5034327;28;20195;-76
2022/01/19 11:39:08;;;;;;;20.20;3.77;;;21.00;72.00;;;;;;5028514;28;20227;-81
2022/01/19 11:41:39;;;;;;;20.80;3.03;;;20.90;71.70;;;;;;5033361;28;20192;-78
2022/01/19 11:44:13;;;;;;;21.87;3.30;;;20.90;71.50;;;;;;5033976;28;20184;-78
2022/01/19 11:46:53;;;;;;;22.67;3.97;;;20.90;71.20;;;;;;5031164;28;20183;-82
2022/01/19 11:49:43;;;;;;;17.13;2.43;;;21.00;70.40;;;;;;5033983;28;20267;-80
2022/01/19 11:52:11;;;;;;;21.80;3.30;;;20.90;70.90;;;;;;5021687;28;20211;-82
2022/01/19 11:54:38;;;;;;;16.50;3.27;;;20.90;71.30;;;;;;5045950;28;20184;-81
2022/01/19 11:57:09;;;;;;;11.30;2.73;;;20.90;71.80;;;;;;5031266;28;20217;-81
2022/01/19 11:59:45;;;;;;;14.67;3.30;;;20.80;72.80;;;;;;5032791;28;20181;-82
2022/01/19 12:02:32;;;;;;;15.70;2.80;;;20.80;72.80;;;;;;5032161;28;20199;-83
2022/01/19 12:05:07;;;;;;;15.20;2.80;;;20.80;72.20;;;;;;5032538;28;20639;-78
2022/01/19 12:07:40;;;;;;;14.57;2.10;;;20.80;69.60;;;;;;5029219;28;20184;-74
2022/01/19 12:10:14;;;;;;;16.53;2.93;;;21.00;67.60;;;;;;5032958;28;20218;-83
2022/01/19 12:13:07;;;;;;;20.80;3.07;;;21.10;66.60;;;;;;5033767;28;20184;-79
2022/01/19 12:15:53;;;;;;;12.70;2.60;;;21.20;66.40;;;;;;5026688;28;20238;-77
2022/01/19 12:18:45;;;;;;;21.53;3.50;;;21.10;66.50;;;;;;5033138;28;20232;-76
2022/01/19 12:21:36;;;;;;;18.20;3.10;;;21.20;66.80;;;;;;5032188;28;20546;-78
2022/01/19 12:24:26;;;;;;;16.43;2.73;;;21.20;67.00;;;;;;5028911;28;20188;-77
2022/01/19 12:27:15;;;;;;;18.37;2.60;;;21.20;67.30;;;;;;5031434;28;20184;-80
2022/01/19 12:30:00;;;;;;;16.00;3.13;;;21.10;67.50;;;;;;5029869;28;20276;-82
2022/01/19 12:32:28;;;;;;;12.30;2.67;;;21.10;67.40;;;;;;5033770;28;20634;-81
2022/01/19 12:34:58;;;;;;;9.73;2.67;;;21.10;67.70;;;;;;5034419;28;20176;-78
2022/01/19 12:37:37;;;;;;;15.73;3.30;;;21.00;67.50;;;;;;5035010;28;20228;-74
2022/01/19 12:40:19;;;;;;;12.77;3.00;;;21.10;67.30;;;;;;5034156;28;20262;-81
2022/01/19 12:42:54;;;;;;;17.83;2.67;;;21.10;67.90;;;;;;5031260;28;20184;-72
2022/01/19 12:45:31;;;;;;;17.17;3.13;;;21.10;67.70;;;;;;5035665;28;20207;-71
2022/01/19 12:48:00;;;;;;;17.90;3.13;;;21.10;67.80;;;;;;5032538;28;20563;-73
2022/01/19 12:50:30;;;;;;;18.47;3.50;;;21.10;67.90;;;;;;5031630;28;20184;-78
2022/01/19 12:53:10;;;;;;;17.60;3.57;;;21.00;68.00;;;;;;5032209;28;20643;-77
2022/01/19 12:55:39;;;;;;;12.23;2.90;;;21.00;68.30;;;;;;5025635;28;20183;-74
2022/01/19 12:58:17;;;;;;;16.33;2.90;;;21.00;68.70;;;;;;5031359;28;20216;-81
2022/01/19 13:00:49;;;;;;;16.10;3.07;;;21.00;69.00;;;;;;5029763;28;20662;-73
2022/01/19 13:03:21;;;;;;;17.13;2.83;;;21.00;69.20;;;;;;5029419;28;20270;-77
2022/01/19 13:05:54;;;;;;;14.70;3.60;;;21.00;69.70;;;;;;5027410;28;20177;-78
2022/01/19 13:08:34;;;;;;;15.83;3.30;;;21.00;69.10;;;;;;5031965;28;20192;-79
2022/01/19 13:11:10;;;;;;;12.93;2.53;;;21.00;68.70;;;;;;5030185;28;20179;-80
2022/01/19 13:14:12;;;;;;;20.03;3.30;;;21.00;68.20;;;;;;5029725;28;20176;-72
2022/01/19 13:16:42;;;;;;;19.80;2.77;;;21.00;66.40;;;;;;5030054;28;20224;-79
2022/01/19 13:19:26;;;;;;;19.10;2.43;;;21.00;65.90;;;;;;5032303;28;20185;-77
2022/01/19 13:22:01;;;;;;;17.13;3.10;;;21.00;65.20;;;;;;5029884;28;20188;-81
2022/01/19 13:24:32;;;;;;;15.97;3.03;;;21.00;65.90;;;;;;5024528;28;20180;-80
2022/01/19 13:27:03;;;;;;;15.40;2.83;;;21.00;65.80;;;;;;5031402;28;20172;-78
2022/01/19 13:29:40;;;;;;;14.87;2.53;;;21.00;66.60;;;;;;5029314;28;20185;-81
2022/01/19 13:32:14;;;;;;;16.17;3.03;;;21.00;68.70;;;;;;5036059;28;20167;-74
2022/01/19 13:34:53;;;;;;;16.77;2.60;;;20.80;70.80;;;;;;5034276;28;20260;-79
2022/01/19 13:37:36;;;;;;;13.00;2.57;;;20.80;71.40;;;;;;5030063;28;20292;-82
2022/01/19 13:40:15;;;;;;;15.43;3.37;;;20.70;71.60;;;;;;5032215;28;20879;-80
2022/01/19 13:42:50;;;;;;;15.27;3.07;;;20.60;70.40;;;;;;5026765;28;20275;-81
2022/01/19 13:45:30;;;;;;;17.33;2.90;;;20.50;70.80;;;;;;5031189;28;20203;-80
2022/01/19 13:48:08;;;;;;;14.80;2.77;;;20.50;70.50;;;;;;5032178;28;20188;-78
2022/01/19 13:50:37;;;;;;;15.60;2.60;;;20.40;69.50;;;;;;5024722;28;20187;-76
2022/01/19 13:53:04;;;;;;;11.90;2.80;;;20.30;68.50;;;;;;5031476;28;20593;-75
2022/01/19 13:55:33;;;;;;;10.57;2.40;;;20.70;67.40;;;;;;5030896;28;20202;-78
2022/01/19 13:58:15;;;;;;;17.00;2.80;;;21.00;66.00;;;;;;5031983;28;20220;-81
2022/01/19 14:00:58;;;;;;;12.17;2.60;;;21.10;65.50;;;;;;5031938;28;20203;-80
2022/01/19 14:03:44;;;;;;;17.03;2.80;;;21.10;65.20;;;;;;5031820;28;20227;-80
2022/01/19 14:06:23;;;;;;;14.33;2.67;;;21.20;64.70;;;;;;5031317;28;20639;-83
2022/01/19 14:08:50;;;;;;;14.07;2.57;;;21.30;62.20;;;;;;5031155;28;20188;-78
2022/01/19 14:11:27;;;;;;;9.87;2.20;;;21.30;61.80;;;;;;5031723;28;20187;-79
2022/01/19 14:14:02;;;;;;;14.23;2.60;;;21.20;62.20;;;;;;5032616;28;20188;-82
2022/01/19 14:16:35;;;;;;;14.80;2.60;;;21.10;62.40;;;;;;5030299;28;20176;-83
2022/01/19 14:19:29;;;;;;;14.37;2.03;;;21.00;61.60;;;;;;5012850;28;20180;-79
2022/01/19 14:22:20;;;;;;;13.50;2.30;;;21.00;61.70;;;;;;5031745;28;20196;-81
2022/01/19 14:25:07;;;;;;;8.73;1.77;;;21.00;60.80;;;;;;5027752;28;20181;-83
2022/01/19 14:27:37;;;;;;;11.07;1.93;;;21.00;61.30;;;;;;5025404;28;20192;-79
2022/01/19 14:30:09;;;;;;;16.80;2.70;;;21.00;61.90;;;;;;5028692;28;20193;-80
2022/01/19 14:32:37;;;;;;;10.80;2.03;;;21.00;62.10;;;;;;5031800;28;20196;-80
2022/01/19 14:35:23;;;;;;;11.50;2.60;;;21.00;62.30;;;;;;5031007;28;20279;-78